sensor_id;sensor_type;location;lat;lon;timestamp;P1;durP1;ratioP1;P2;durP2;ratioP2
7557;SDS011;3820;51.098;13.716;2022-08-19T00:01:29;5.05;;;3.38;;
7557;SDS011;3820;51.098;13.716;2022-08-19T00:04:00;3.88;;;2.30;;
7557;SDS011;3820;51.098;13.716;2022-08-19T00:06:29;5.20;;;3.80;;
7557;SDS011;3820;51.098;13.716;2022-08-19T00:08:56;6.13;;;3.45;;
7557;SDS011;3820;51.098;13.716;2022-08-19T00:11:24;3.28;;;2.78;;
7557;SDS011;3820;51.098;13.716;2022-08-19T00:13:52;4.32;;;3.45;;
7557;SDS011;3820;51.098;13.716;2022-08-19T00:16:21;4.55;;;3.38;;
7557;SDS011;3820;51.098;13.716;2022-08-19T00:18:52;3.63;;;2.47;;
7557;SDS011;3820;51.098;13.716;2022-08-19T00:21:22;3.25;;;2.20;;
7557;SDS011;3820;51.098;13.716;2022-08-19T00:23:50;7.38;;;3.55;;
7557;SDS011;3820;51.098;13.716;2022-08-19T00:26:16;4.53;;;3.10;;
7557;SDS011;3820;51.098;13.716;2022-08-19T00:28:43;4.82;;;3.88;;
7557;SDS011;3820;51.098;13.716;2022-08-19T00:31:09;4.00;;;2.88;;
7557;SDS011;3820;51.098;13.716;2022-08-19T00:33:36;4.18;;;2.42;;
7557;SDS011;3820;51.098;13.716;2022-08-19T00:36:04;5.25;;;2.70;;
7557;SDS011;3820;51.098;13.716;2022-08-19T00:38:33;5.28;;;3.83;;
7557;SDS011;3820;51.098;13.716;2022-08-19T00:41:03;6.88;;;4.28;;
7557;SDS011;3820;51.098;13.716;2022-08-19T00:43:31;4.68;;;3.70;;
7557;SDS011;3820;51.098;13.716;2022-08-19T00:45:57;6.57;;;3.40;;
7557;SDS011;3820;51.098;13.716;2022-08-19T00:48:24;5.70;;;3.50;;
7557;SDS011;3820;51.098;13.716;2022-08-19T00:50:51;7.47;;;4.45;;
7557;SDS011;3820;51.098;13.716;2022-08-19T00:53:20;7.10;;;4.10;;
7557;SDS011;3820;51.098;13.716;2022-08-19T00:55:49;6.20;;;4.00;;
7557;SDS011;3820;51.098;13.716;2022-08-19T00:58:19;5.65;;;3.63;;
7557;SDS011;3820;51.098;13.716;2022-08-19T01:00:47;4.20;;;2.75;;
7557;SDS011;3820;51.098;13.716;2022-08-19T01:03:16;5.03;;;3.13;;
7557;SDS011;3820;51.098;13.716;2022-08-19T01:05:45;6.75;;;3.70;;
7557;SDS011;3820;51.098;13.716;2022-08-19T01:08:13;9.30;;;3.85;;
7557;SDS011;3820;51.098;13.716;2022-08-19T01:10:43;6.95;;;4.43;;
7557;SDS011;3820;51.098;13.716;2022-08-19T01:13:14;5.18;;;4.43;;
7557;SDS011;3820;51.098;13.716;2022-08-19T01:15:46;5.10;;;3.42;;
7557;SDS011;3820;51.098;13.716;2022-08-19T01:18:17;7.07;;;4.28;;
7557;SDS011;3820;51.098;13.716;2022-08-19T01:20:44;7.15;;;3.47;;
7557;SDS011;3820;51.098;13.716;2022-08-19T01:23:12;5.50;;;3.90;;
7557;SDS011;3820;51.098;13.716;2022-08-19T01:28:18;4.22;;;2.85;;
7557;SDS011;3820;51.098;13.716;2022-08-19T01:30:59;5.32;;;3.35;;
7557;SDS011;3820;51.098;13.716;2022-08-19T01:33:33;5.68;;;3.40;;
7557;SDS011;3820;51.098;13.716;2022-08-19T01:36:04;6.43;;;4.38;;
7557;SDS011;3820;51.098;13.716;2022-08-19T01:38:35;6.43;;;4.38;;
7557;SDS011;3820;51.098;13.716;2022-08-19T01:41:10;5.03;;;3.25;;
7557;SDS011;3820;51.098;13.716;2022-08-19T01:43:38;4.05;;;3.35;;
7557;SDS011;3820;51.098;13.716;2022-08-19T01:46:24;5.15;;;3.90;;
7557;SDS011;3820;51.098;13.716;2022-08-19T01:48:51;6.03;;;4.22;;
7557;SDS011;3820;51.098;13.716;2022-08-19T01:51:18;7.43;;;4.40;;
7557;SDS011;3820;51.098;13.716;2022-08-19T01:53:46;5.75;;;4.03;;
7557;SDS011;3820;51.098;13.716;2022-08-19T01:56:14;4.07;;;3.58;;
7557;SDS011;3820;51.098;13.716;2022-08-19T01:58:41;6.00;;;3.95;;
7557;SDS011;3820;51.098;13.716;2022-08-19T02:01:12;5.47;;;3.50;;
7557;SDS011;3820;51.098;13.716;2022-08-19T02:03:40;5.93;;;3.38;;
7557;SDS011;3820;51.098;13.716;2022-08-19T02:06:07;6.07;;;3.55;;
7557;SDS011;3820;51.098;13.716;2022-08-19T02:08:35;6.07;;;3.70;;
7557;SDS011;3820;51.098;13.716;2022-08-19T02:11:03;5.05;;;3.15;;
7557;SDS011;3820;51.098;13.716;2022-08-19T02:13:30;6.15;;;3.63;;
7557;SDS011;3820;51.098;13.716;2022-08-19T02:15:57;4.10;;;3.38;;
7557;SDS011;3820;51.098;13.716;2022-08-19T02:18:25;5.13;;;3.20;;
7557;SDS011;3820;51.098;13.716;2022-08-19T02:20:53;7.28;;;3.83;;
7557;SDS011;3820;51.098;13.716;2022-08-19T02:23:21;5.10;;;3.70;;
7557;SDS011;3820;51.098;13.716;2022-08-19T02:25:48;6.53;;;3.97;;
7557;SDS011;3820;51.098;13.716;2022-08-19T02:28:15;6.10;;;3.15;;
7557;SDS011;3820;51.098;13.716;2022-08-19T02:30:44;5.38;;;3.38;;
7557;SDS011;3820;51.098;13.716;2022-08-19T02:33:11;5.20;;;3.88;;
7557;SDS011;3820;51.098;13.716;2022-08-19T02:35:40;6.50;;;4.28;;
7557;SDS011;3820;51.098;13.716;2022-08-19T02:38:08;5.28;;;3.75;;
7557;SDS011;3820;51.098;13.716;2022-08-19T02:40:57;5.15;;;3.30;;
7557;SDS011;3820;51.098;13.716;2022-08-19T02:43:26;5.18;;;3.95;;
7557;SDS011;3820;51.098;13.716;2022-08-19T02:45:53;10.57;;;4.97;;
7557;SDS011;3820;51.098;13.716;2022-08-19T02:48:20;5.63;;;3.45;;
7557;SDS011;3820;51.098;13.716;2022-08-19T02:50:50;5.05;;;3.08;;
7557;SDS011;3820;51.098;13.716;2022-08-19T02:53:21;6.07;;;4.30;;
7557;SDS011;3820;51.098;13.716;2022-08-19T02:55:50;8.02;;;4.30;;
7557;SDS011;3820;51.098;13.716;2022-08-19T02:58:17;5.35;;;4.07;;
7557;SDS011;3820;51.098;13.716;2022-08-19T03:00:46;6.15;;;4.13;;
7557;SDS011;3820;51.098;13.716;2022-08-19T03:03:15;6.05;;;3.38;;
7557;SDS011;3820;51.098;13.716;2022-08-19T03:05:42;4.70;;;2.97;;
7557;SDS011;3820;51.098;13.716;2022-08-19T03:08:21;5.35;;;4.10;;
7557;SDS011;3820;51.098;13.716;2022-08-19T03:10:47;9.25;;;3.72;;
7557;SDS011;3820;51.098;13.716;2022-08-19T03:13:15;5.97;;;3.75;;
7557;SDS011;3820;51.098;13.716;2022-08-19T03:15:42;4.57;;;3.13;;
7557;SDS011;3820;51.098;13.716;2022-08-19T03:18:11;5.63;;;4.00;;
7557;SDS011;3820;51.098;13.716;2022-08-19T03:20:42;5.05;;;3.72;;
7557;SDS011;3820;51.098;13.716;2022-08-19T03:23:10;8.18;;;4.38;;
7557;SDS011;3820;51.098;13.716;2022-08-19T03:25:39;6.70;;;4.60;;
7557;SDS011;3820;51.098;13.716;2022-08-19T03:28:10;8.02;;;4.45;;
7557;SDS011;3820;51.098;13.716;2022-08-19T03:30:38;4.43;;;3.25;;
7557;SDS011;3820;51.098;13.716;2022-08-19T03:33:09;8.05;;;5.40;;
7557;SDS011;3820;51.098;13.716;2022-08-19T03:35:43;7.22;;;4.63;;
7557;SDS011;3820;51.098;13.716;2022-08-19T03:38:11;4.53;;;3.35;;
7557;SDS011;3820;51.098;13.716;2022-08-19T03:40:38;6.50;;;4.32;;
7557;SDS011;3820;51.098;13.716;2022-08-19T03:43:04;5.15;;;3.40;;
7557;SDS011;3820;51.098;13.716;2022-08-19T03:45:32;8.00;;;3.83;;
7557;SDS011;3820;51.098;13.716;2022-08-19T03:47:58;5.28;;;3.88;;
7557;SDS011;3820;51.098;13.716;2022-08-19T03:50:25;5.25;;;3.70;;
7557;SDS011;3820;51.098;13.716;2022-08-19T03:52:51;6.68;;;4.18;;
7557;SDS011;3820;51.098;13.716;2022-08-19T03:55:19;6.70;;;3.28;;
7557;SDS011;3820;51.098;13.716;2022-08-19T03:57:45;5.60;;;4.35;;
7557;SDS011;3820;51.098;13.716;2022-08-19T04:00:14;5.38;;;3.85;;
7557;SDS011;3820;51.098;13.716;2022-08-19T04:02:41;5.72;;;3.97;;
7557;SDS011;3820;51.098;13.716;2022-08-19T04:05:26;7.00;;;3.72;;
7557;SDS011;3820;51.098;13.716;2022-08-19T04:07:54;6.90;;;4.07;;
7557;SDS011;3820;51.098;13.716;2022-08-19T04:10:24;5.40;;;3.72;;
7557;SDS011;3820;51.098;13.716;2022-08-19T04:12:51;7.70;;;3.42;;
7557;SDS011;3820;51.098;13.716;2022-08-19T04:15:18;12.52;;;4.78;;
7557;SDS011;3820;51.098;13.716;2022-08-19T04:17:45;8.55;;;3.67;;
7557;SDS011;3820;51.098;13.716;2022-08-19T04:20:11;5.72;;;3.97;;
7557;SDS011;3820;51.098;13.716;2022-08-19T04:22:38;7.13;;;3.67;;
7557;SDS011;3820;51.098;13.716;2022-08-19T04:25:04;6.18;;;3.60;;
7557;SDS011;3820;51.098;13.716;2022-08-19T04:27:31;6.97;;;3.85;;
7557;SDS011;3820;51.098;13.716;2022-08-19T04:29:59;5.63;;;3.63;;
7557;SDS011;3820;51.098;13.716;2022-08-19T04:32:25;6.47;;;3.65;;
7557;SDS011;3820;51.098;13.716;2022-08-19T04:34:52;4.07;;;3.38;;
7557;SDS011;3820;51.098;13.716;2022-08-19T04:37:27;4.95;;;3.72;;
7557;SDS011;3820;51.098;13.716;2022-08-19T04:40:01;5.55;;;3.42;;
7557;SDS011;3820;51.098;13.716;2022-08-19T04:42:47;6.10;;;3.40;;
7557;SDS011;3820;51.098;13.716;2022-08-19T04:45:14;6.20;;;4.13;;
7557;SDS011;3820;51.098;13.716;2022-08-19T04:47:43;5.72;;;3.92;;
7557;SDS011;3820;51.098;13.716;2022-08-19T04:50:23;6.38;;;3.78;;
7557;SDS011;3820;51.098;13.716;2022-08-19T04:52:51;6.38;;;3.47;;
7557;SDS011;3820;51.098;13.716;2022-08-19T04:55:17;5.00;;;3.05;;
7557;SDS011;3820;51.098;13.716;2022-08-19T04:57:44;3.63;;;2.80;;
7557;SDS011;3820;51.098;13.716;2022-08-19T05:00:11;4.20;;;3.00;;
7557;SDS011;3820;51.098;13.716;2022-08-19T05:02:38;6.97;;;4.15;;
7557;SDS011;3820;51.098;13.716;2022-08-19T05:05:05;5.15;;;3.60;;
7557;SDS011;3820;51.098;13.716;2022-08-19T05:07:32;5.32;;;3.40;;
7557;SDS011;3820;51.098;13.716;2022-08-19T05:09:58;6.13;;;4.25;;
7557;SDS011;3820;51.098;13.716;2022-08-19T05:12:25;5.97;;;3.88;;
7557;SDS011;3820;51.098;13.716;2022-08-19T05:14:54;4.95;;;3.70;;
7557;SDS011;3820;51.098;13.716;2022-08-19T05:17:23;4.72;;;3.42;;
7557;SDS011;3820;51.098;13.716;2022-08-19T05:19:53;6.25;;;4.18;;
7557;SDS011;3820;51.098;13.716;2022-08-19T05:22:39;6.28;;;3.42;;
7557;SDS011;3820;51.098;13.716;2022-08-19T05:25:08;4.13;;;3.35;;
7557;SDS011;3820;51.098;13.716;2022-08-19T05:27:39;6.32;;;4.07;;
7557;SDS011;3820;51.098;13.716;2022-08-19T05:30:07;5.97;;;4.45;;
7557;SDS011;3820;51.098;13.716;2022-08-19T05:32:34;5.85;;;4.20;;
7557;SDS011;3820;51.098;13.716;2022-08-19T05:35:00;5.47;;;3.72;;
7557;SDS011;3820;51.098;13.716;2022-08-19T05:37:27;9.07;;;4.57;;
7557;SDS011;3820;51.098;13.716;2022-08-19T05:39:54;6.93;;;5.10;;
7557;SDS011;3820;51.098;13.716;2022-08-19T05:42:21;6.45;;;4.53;;
7557;SDS011;3820;51.098;13.716;2022-08-19T05:44:49;5.38;;;4.03;;
7557;SDS011;3820;51.098;13.716;2022-08-19T05:47:16;6.55;;;3.83;;
7557;SDS011;3820;51.098;13.716;2022-08-19T05:49:46;5.40;;;3.28;;
7557;SDS011;3820;51.098;13.716;2022-08-19T05:52:13;4.07;;;3.17;;
7557;SDS011;3820;51.098;13.716;2022-08-19T05:54:44;5.68;;;3.58;;
7557;SDS011;3820;51.098;13.716;2022-08-19T05:57:16;4.50;;;3.25;;
7557;SDS011;3820;51.098;13.716;2022-08-19T05:59:44;6.20;;;3.70;;
7557;SDS011;3820;51.098;13.716;2022-08-19T06:02:12;8.27;;;4.45;;
7557;SDS011;3820;51.098;13.716;2022-08-19T06:04:40;4.15;;;2.72;;
7557;SDS011;3820;51.098;13.716;2022-08-19T06:07:09;5.13;;;4.07;;
7557;SDS011;3820;51.098;13.716;2022-08-19T06:09:38;4.68;;;3.42;;
7557;SDS011;3820;51.098;13.716;2022-08-19T06:12:05;5.30;;;3.50;;
7557;SDS011;3820;51.098;13.716;2022-08-19T06:14:33;4.05;;;2.67;;
7557;SDS011;3820;51.098;13.716;2022-08-19T06:17:07;4.40;;;2.85;;
7557;SDS011;3820;51.098;13.716;2022-08-19T06:19:33;8.32;;;3.25;;
7557;SDS011;3820;51.098;13.716;2022-08-19T06:22:06;4.60;;;2.65;;
7557;SDS011;3820;51.098;13.716;2022-08-19T06:24:32;5.00;;;3.15;;
7557;SDS011;3820;51.098;13.716;2022-08-19T06:26:59;3.35;;;3.03;;
7557;SDS011;3820;51.098;13.716;2022-08-19T06:29:27;2.70;;;1.95;;
7557;SDS011;3820;51.098;13.716;2022-08-19T06:31:54;4.15;;;3.08;;
7557;SDS011;3820;51.098;13.716;2022-08-19T06:34:22;3.28;;;2.63;;
7557;SDS011;3820;51.098;13.716;2022-08-19T06:36:50;4.72;;;2.88;;
7557;SDS011;3820;51.098;13.716;2022-08-19T06:39:19;6.72;;;3.13;;
7557;SDS011;3820;51.098;13.716;2022-08-19T06:41:48;4.20;;;3.03;;
7557;SDS011;3820;51.098;13.716;2022-08-19T06:44:20;4.18;;;2.70;;
7557;SDS011;3820;51.098;13.716;2022-08-19T06:46:51;7.68;;;4.18;;
7557;SDS011;3820;51.098;13.716;2022-08-19T06:49:20;4.75;;;3.15;;
7557;SDS011;3820;51.098;13.716;2022-08-19T06:51:48;3.35;;;2.80;;
7557;SDS011;3820;51.098;13.716;2022-08-19T06:54:17;3.15;;;2.85;;
7557;SDS011;3820;51.098;13.716;2022-08-19T06:56:45;4.40;;;3.42;;
7557;SDS011;3820;51.098;13.716;2022-08-19T06:59:13;4.88;;;3.35;;
7557;SDS011;3820;51.098;13.716;2022-08-19T07:01:43;6.10;;;4.20;;
7557;SDS011;3820;51.098;13.716;2022-08-19T07:04:14;5.40;;;3.08;;
7557;SDS011;3820;51.098;13.716;2022-08-19T07:06:42;5.55;;;3.95;;
7557;SDS011;3820;51.098;13.716;2022-08-19T07:09:12;7.30;;;3.90;;
7557;SDS011;3820;51.098;13.716;2022-08-19T07:11:47;8.25;;;3.33;;
7557;SDS011;3820;51.098;13.716;2022-08-19T07:14:16;5.55;;;3.65;;
7557;SDS011;3820;51.098;13.716;2022-08-19T07:16:46;4.03;;;3.60;;
7557;SDS011;3820;51.098;13.716;2022-08-19T07:19:13;5.75;;;3.50;;
7557;SDS011;3820;51.098;13.716;2022-08-19T07:21:44;4.70;;;4.13;;
7557;SDS011;3820;51.098;13.716;2022-08-19T07:24:12;6.93;;;4.97;;
7557;SDS011;3820;51.098;13.716;2022-08-19T07:26:40;7.20;;;4.10;;
7557;SDS011;3820;51.098;13.716;2022-08-19T07:29:07;5.22;;;3.50;;
7557;SDS011;3820;51.098;13.716;2022-08-19T07:31:34;6.70;;;4.35;;
7557;SDS011;3820;51.098;13.716;2022-08-19T07:34:06;7.93;;;4.38;;
7557;SDS011;3820;51.098;13.716;2022-08-19T07:36:34;5.65;;;3.67;;
7557;SDS011;3820;51.098;13.716;2022-08-19T07:39:05;7.10;;;4.53;;
7557;SDS011;3820;51.098;13.716;2022-08-19T07:41:34;8.23;;;5.18;;
7557;SDS011;3820;51.098;13.716;2022-08-19T07:44:01;4.70;;;3.22;;
7557;SDS011;3820;51.098;13.716;2022-08-19T07:46:33;3.67;;;3.03;;
7557;SDS011;3820;51.098;13.716;2022-08-19T07:49:01;4.95;;;3.50;;
7557;SDS011;3820;51.098;13.716;2022-08-19T07:51:29;5.68;;;3.38;;
7557;SDS011;3820;51.098;13.716;2022-08-19T07:54:02;4.18;;;3.40;;
7557;SDS011;3820;51.098;13.716;2022-08-19T07:56:29;7.70;;;4.22;;
7557;SDS011;3820;51.098;13.716;2022-08-19T07:58:56;6.10;;;3.53;;
7557;SDS011;3820;51.098;13.716;2022-08-19T08:01:25;4.40;;;3.63;;
7557;SDS011;3820;51.098;13.716;2022-08-19T08:03:55;5.43;;;3.92;;
7557;SDS011;3820;51.098;13.716;2022-08-19T08:06:41;6.28;;;4.20;;
7557;SDS011;3820;51.098;13.716;2022-08-19T08:09:30;7.05;;;5.40;;
7557;SDS011;3820;51.098;13.716;2022-08-19T08:12:38;10.38;;;5.18;;
7557;SDS011;3820;51.098;13.716;2022-08-19T08:15:02;6.68;;;5.10;;
7557;SDS011;3820;51.098;13.716;2022-08-19T08:17:33;9.55;;;4.97;;
7557;SDS011;3820;51.098;13.716;2022-08-19T08:20:17;6.57;;;4.57;;
7557;SDS011;3820;51.098;13.716;2022-08-19T08:22:45;5.30;;;4.25;;
7557;SDS011;3820;51.098;13.716;2022-08-19T08:25:30;7.45;;;5.35;;
7557;SDS011;3820;51.098;13.716;2022-08-19T08:27:59;5.57;;;4.03;;
7557;SDS011;3820;51.098;13.716;2022-08-19T08:30:27;5.82;;;3.88;;
7557;SDS011;3820;51.098;13.716;2022-08-19T08:32:58;7.38;;;4.38;;
7557;SDS011;3820;51.098;13.716;2022-08-19T08:35:25;5.82;;;3.58;;
7557;SDS011;3820;51.098;13.716;2022-08-19T08:37:53;7.18;;;4.75;;
7557;SDS011;3820;51.098;13.716;2022-08-19T08:40:21;7.15;;;4.03;;
7557;SDS011;3820;51.098;13.716;2022-08-19T08:45:50;5.70;;;4.20;;
7557;SDS011;3820;51.098;13.716;2022-08-19T08:48:30;5.28;;;3.58;;
7557;SDS011;3820;51.098;13.716;2022-08-19T08:51:02;5.47;;;3.50;;
7557;SDS011;3820;51.098;13.716;2022-08-19T08:53:30;7.18;;;5.28;;
7557;SDS011;3820;51.098;13.716;2022-08-19T08:56:01;3.80;;;2.88;;
7557;SDS011;3820;51.098;13.716;2022-08-19T08:59:04;5.75;;;4.10;;
7557;SDS011;3820;51.098;13.716;2022-08-19T09:01:24;8.57;;;4.13;;
7557;SDS011;3820;51.098;13.716;2022-08-19T09:03:56;4.43;;;3.45;;
7557;SDS011;3820;51.098;13.716;2022-08-19T09:06:33;6.13;;;3.80;;
7557;SDS011;3820;51.098;13.716;2022-08-19T09:09:20;7.82;;;4.65;;
7557;SDS011;3820;51.098;13.716;2022-08-19T09:12:03;6.10;;;3.35;;
7557;SDS011;3820;51.098;13.716;2022-08-19T09:17:21;4.20;;;2.88;;
7557;SDS011;3820;51.098;13.716;2022-08-19T09:19:58;6.15;;;3.83;;
7557;SDS011;3820;51.098;13.716;2022-08-19T09:22:52;7.63;;;4.55;;
7557;SDS011;3820;51.098;13.716;2022-08-19T09:25:20;5.78;;;3.67;;
7557;SDS011;3820;51.098;13.716;2022-08-19T09:27:52;6.93;;;3.50;;
7557;SDS011;3820;51.098;13.716;2022-08-19T09:30:28;4.32;;;3.05;;
7557;SDS011;3820;51.098;13.716;2022-08-19T09:32:57;5.90;;;4.05;;
7557;SDS011;3820;51.098;13.716;2022-08-19T09:35:25;5.45;;;3.55;;
7557;SDS011;3820;51.098;13.716;2022-08-19T09:37:53;3.25;;;2.65;;
7557;SDS011;3820;51.098;13.716;2022-08-19T09:40:25;4.43;;;3.03;;
7557;SDS011;3820;51.098;13.716;2022-08-19T09:42:55;4.68;;;3.03;;
7557;SDS011;3820;51.098;13.716;2022-08-19T09:45:23;5.75;;;3.22;;
7557;SDS011;3820;51.098;13.716;2022-08-19T09:47:50;4.55;;;3.13;;
7557;SDS011;3820;51.098;13.716;2022-08-19T09:50:20;5.78;;;3.53;;
7557;SDS011;3820;51.098;13.716;2022-08-19T09:52:48;6.72;;;3.40;;
7557;SDS011;3820;51.098;13.716;2022-08-19T09:55:22;3.60;;;2.55;;
7557;SDS011;3820;51.098;13.716;2022-08-19T09:57:57;6.82;;;4.00;;
7557;SDS011;3820;51.098;13.716;2022-08-19T10:00:25;3.92;;;2.97;;
7557;SDS011;3820;51.098;13.716;2022-08-19T10:02:52;5.40;;;2.83;;
7557;SDS011;3820;51.098;13.716;2022-08-19T10:05:19;5.38;;;3.15;;
7557;SDS011;3820;51.098;13.716;2022-08-19T10:08:34;2.92;;;2.20;;
7557;SDS011;3820;51.098;13.716;2022-08-19T10:11:03;21.52;;;2.78;;
7557;SDS011;3820;51.098;13.716;2022-08-19T10:13:50;5.47;;;2.80;;
7557;SDS011;3820;51.098;13.716;2022-08-19T10:16:18;6.70;;;3.80;;
7557;SDS011;3820;51.098;13.716;2022-08-19T10:18:46;4.80;;;2.03;;
7557;SDS011;3820;51.098;13.716;2022-08-19T10:21:16;4.28;;;2.42;;
7557;SDS011;3820;51.098;13.716;2022-08-19T10:23:45;3.20;;;2.33;;
7557;SDS011;3820;51.098;13.716;2022-08-19T10:26:15;4.05;;;2.45;;
7557;SDS011;3820;51.098;13.716;2022-08-19T10:28:44;2.85;;;1.80;;
7557;SDS011;3820;51.098;13.716;2022-08-19T10:31:13;3.33;;;2.38;;
7557;SDS011;3820;51.098;13.716;2022-08-19T10:33:44;3.30;;;2.63;;
7557;SDS011;3820;51.098;13.716;2022-08-19T10:36:20;3.58;;;2.58;;
7557;SDS011;3820;51.098;13.716;2022-08-19T10:38:49;5.00;;;2.88;;
7557;SDS011;3820;51.098;13.716;2022-08-19T10:41:23;3.30;;;2.63;;
7557;SDS011;3820;51.098;13.716;2022-08-19T10:43:51;3.72;;;2.25;;
7557;SDS011;3820;51.098;13.716;2022-08-19T10:46:22;3.40;;;2.42;;
7557;SDS011;3820;51.098;13.716;2022-08-19T10:48:50;5.38;;;2.50;;
7557;SDS011;3820;51.098;13.716;2022-08-19T10:51:17;4.40;;;2.72;;
7557;SDS011;3820;51.098;13.716;2022-08-19T10:54:13;2.25;;;1.73;;
7557;SDS011;3820;51.098;13.716;2022-08-19T10:56:39;3.05;;;2.00;;
7557;SDS011;3820;51.098;13.716;2022-08-19T10:59:25;4.32;;;2.35;;
7557;SDS011;3820;51.098;13.716;2022-08-19T11:02:00;4.18;;;2.03;;
7557;SDS011;3820;51.098;13.716;2022-08-19T11:04:27;3.25;;;2.30;;
7557;SDS011;3820;51.098;13.716;2022-08-19T11:06:54;3.00;;;2.00;;
7557;SDS011;3820;51.098;13.716;2022-08-19T11:09:22;4.18;;;2.55;;
7557;SDS011;3820;51.098;13.716;2022-08-19T11:11:59;5.38;;;3.50;;
7557;SDS011;3820;51.098;13.716;2022-08-19T11:14:30;5.78;;;2.53;;
7557;SDS011;3820;51.098;13.716;2022-08-19T11:16:59;3.47;;;2.40;;
7557;SDS011;3820;51.098;13.716;2022-08-19T11:19:26;3.42;;;2.65;;
7557;SDS011;3820;51.098;13.716;2022-08-19T11:21:53;4.72;;;3.22;;
7557;SDS011;3820;51.098;13.716;2022-08-19T11:24:25;3.70;;;2.63;;
7557;SDS011;3820;51.098;13.716;2022-08-19T11:26:53;4.80;;;3.13;;
7557;SDS011;3820;51.098;13.716;2022-08-19T11:29:25;5.85;;;3.38;;
7557;SDS011;3820;51.098;13.716;2022-08-19T11:31:54;5.10;;;3.65;;
7557;SDS011;3820;51.098;13.716;2022-08-19T11:34:21;4.00;;;2.83;;
7557;SDS011;3820;51.098;13.716;2022-08-19T11:36:50;8.30;;;3.55;;
7557;SDS011;3820;51.098;13.716;2022-08-19T11:39:18;4.53;;;2.95;;
7557;SDS011;3820;51.098;13.716;2022-08-19T11:41:46;5.88;;;2.53;;
7557;SDS011;3820;51.098;13.716;2022-08-19T11:44:12;4.22;;;2.85;;
7557;SDS011;3820;51.098;13.716;2022-08-19T11:46:40;4.28;;;2.58;;
7557;SDS011;3820;51.098;13.716;2022-08-19T11:49:12;5.57;;;3.35;;
7557;SDS011;3820;51.098;13.716;2022-08-19T11:51:40;5.03;;;2.97;;
7557;SDS011;3820;51.098;13.716;2022-08-19T11:54:08;4.57;;;2.85;;
7557;SDS011;3820;51.098;13.716;2022-08-19T11:56:36;5.15;;;3.38;;
7557;SDS011;3820;51.098;13.716;2022-08-19T11:59:03;6.63;;;3.20;;
7557;SDS011;3820;51.098;13.716;2022-08-19T12:01:30;5.45;;;3.67;;
7557;SDS011;3820;51.098;13.716;2022-08-19T12:03:57;6.05;;;3.38;;
7557;SDS011;3820;51.098;13.716;2022-08-19T12:06:25;8.30;;;3.40;;
7557;SDS011;3820;51.098;13.716;2022-08-19T12:08:56;7.22;;;3.60;;
7557;SDS011;3820;51.098;13.716;2022-08-19T12:11:23;6.95;;;4.63;;
7557;SDS011;3820;51.098;13.716;2022-08-19T12:13:50;7.13;;;4.25;;
7557;SDS011;3820;51.098;13.716;2022-08-19T12:16:22;7.63;;;4.40;;
7557;SDS011;3820;51.098;13.716;2022-08-19T12:18:50;6.75;;;4.00;;
7557;SDS011;3820;51.098;13.716;2022-08-19T12:21:19;6.47;;;3.65;;
7557;SDS011;3820;51.098;13.716;2022-08-19T12:23:51;5.85;;;3.38;;
7557;SDS011;3820;51.098;13.716;2022-08-19T12:26:21;8.57;;;5.25;;
7557;SDS011;3820;51.098;13.716;2022-08-19T12:28:48;8.18;;;4.65;;
7557;SDS011;3820;51.098;13.716;2022-08-19T12:31:15;6.63;;;3.95;;
7557;SDS011;3820;51.098;13.716;2022-08-19T12:33:42;7.85;;;3.15;;
7557;SDS011;3820;51.098;13.716;2022-08-19T12:36:10;6.15;;;3.72;;
7557;SDS011;3820;51.098;13.716;2022-08-19T12:38:37;5.22;;;3.90;;
7557;SDS011;3820;51.098;13.716;2022-08-19T12:41:05;5.97;;;3.33;;
7557;SDS011;3820;51.098;13.716;2022-08-19T12:43:33;5.60;;;3.42;;
7557;SDS011;3820;51.098;13.716;2022-08-19T12:46:01;7.40;;;4.47;;
7557;SDS011;3820;51.098;13.716;2022-08-19T12:48:35;7.63;;;4.00;;
7557;SDS011;3820;51.098;13.716;2022-08-19T12:51:06;7.25;;;3.88;;
7557;SDS011;3820;51.098;13.716;2022-08-19T12:53:34;5.65;;;3.40;;
7557;SDS011;3820;51.098;13.716;2022-08-19T12:56:04;6.28;;;3.83;;
7557;SDS011;3820;51.098;13.716;2022-08-19T12:58:37;8.32;;;4.40;;
7557;SDS011;3820;51.098;13.716;2022-08-19T13:01:08;8.27;;;5.07;;
7557;SDS011;3820;51.098;13.716;2022-08-19T13:03:36;7.60;;;3.50;;
7557;SDS011;3820;51.098;13.716;2022-08-19T13:06:06;5.60;;;3.00;;
7557;SDS011;3820;51.098;13.716;2022-08-19T13:08:33;8.48;;;4.53;;
7557;SDS011;3820;51.098;13.716;2022-08-19T13:11:06;6.97;;;3.85;;
7557;SDS011;3820;51.098;13.716;2022-08-19T13:13:43;6.88;;;3.72;;
7557;SDS011;3820;51.098;13.716;2022-08-19T13:16:13;7.10;;;4.22;;
7557;SDS011;3820;51.098;13.716;2022-08-19T13:18:40;8.30;;;4.35;;
7557;SDS011;3820;51.098;13.716;2022-08-19T13:21:08;7.18;;;4.57;;
7557;SDS011;3820;51.098;13.716;2022-08-19T13:23:35;6.20;;;3.05;;
7557;SDS011;3820;51.098;13.716;2022-08-19T13:26:03;6.90;;;4.50;;
7557;SDS011;3820;51.098;13.716;2022-08-19T13:28:31;11.30;;;5.25;;
7557;SDS011;3820;51.098;13.716;2022-08-19T13:31:18;4.55;;;2.92;;
7557;SDS011;3820;51.098;13.716;2022-08-19T13:34:04;7.32;;;4.28;;
7557;SDS011;3820;51.098;13.716;2022-08-19T13:36:35;4.88;;;3.78;;
7557;SDS011;3820;51.098;13.716;2022-08-19T13:39:02;5.78;;;4.15;;
7557;SDS011;3820;51.098;13.716;2022-08-19T13:41:29;20.48;;;4.55;;
7557;SDS011;3820;51.098;13.716;2022-08-19T13:43:57;8.52;;;4.82;;
7557;SDS011;3820;51.098;13.716;2022-08-19T13:46:23;10.68;;;4.80;;
7557;SDS011;3820;51.098;13.716;2022-08-19T13:48:50;7.32;;;5.03;;
7557;SDS011;3820;51.098;13.716;2022-08-19T13:51:16;8.98;;;5.07;;
7557;SDS011;3820;51.098;13.716;2022-08-19T13:53:44;6.53;;;4.18;;
7557;SDS011;3820;51.098;13.716;2022-08-19T13:56:14;8.10;;;4.63;;
7557;SDS011;3820;51.098;13.716;2022-08-19T13:58:42;6.75;;;4.47;;
7557;SDS011;3820;51.098;13.716;2022-08-19T14:01:09;6.72;;;4.50;;
7557;SDS011;3820;51.098;13.716;2022-08-19T14:03:37;5.90;;;4.45;;
7557;SDS011;3820;51.098;13.716;2022-08-19T14:06:04;9.10;;;4.75;;
7557;SDS011;3820;51.098;13.716;2022-08-19T14:08:31;8.15;;;4.90;;
7557;SDS011;3820;51.098;13.716;2022-08-19T14:10:58;9.45;;;5.15;;
7557;SDS011;3820;51.098;13.716;2022-08-19T14:13:31;7.90;;;4.45;;
7557;SDS011;3820;51.098;13.716;2022-08-19T14:16:00;10.00;;;5.30;;
7557;SDS011;3820;51.098;13.716;2022-08-19T14:18:26;8.65;;;4.45;;
7557;SDS011;3820;51.098;13.716;2022-08-19T14:20:56;9.18;;;4.78;;
7557;SDS011;3820;51.098;13.716;2022-08-19T14:23:24;10.35;;;6.05;;
7557;SDS011;3820;51.098;13.716;2022-08-19T14:25:50;7.55;;;4.68;;
7557;SDS011;3820;51.098;13.716;2022-08-19T14:28:17;9.10;;;6.43;;
7557;SDS011;3820;51.098;13.716;2022-08-19T14:30:44;8.57;;;5.10;;
7557;SDS011;3820;51.098;13.716;2022-08-19T14:33:10;9.82;;;5.90;;
7557;SDS011;3820;51.098;13.716;2022-08-19T14:35:37;8.27;;;4.22;;
7557;SDS011;3820;51.098;13.716;2022-08-19T14:38:05;6.70;;;4.45;;
7557;SDS011;3820;51.098;13.716;2022-08-19T14:40:32;7.82;;;4.32;;
7557;SDS011;3820;51.098;13.716;2022-08-19T14:43:00;8.95;;;5.88;;
7557;SDS011;3820;51.098;13.716;2022-08-19T14:45:34;9.05;;;5.28;;
7557;SDS011;3820;51.098;13.716;2022-08-19T14:48:03;9.60;;;4.97;;
7557;SDS011;3820;51.098;13.716;2022-08-19T14:50:37;12.07;;;5.72;;
7557;SDS011;3820;51.098;13.716;2022-08-19T14:53:05;8.25;;;4.57;;
7557;SDS011;3820;51.098;13.716;2022-08-19T14:55:40;6.75;;;5.00;;
7557;SDS011;3820;51.098;13.716;2022-08-19T14:58:07;6.53;;;4.88;;
7557;SDS011;3820;51.098;13.716;2022-08-19T15:00:53;6.85;;;4.82;;
7557;SDS011;3820;51.098;13.716;2022-08-19T15:03:20;8.93;;;5.53;;
7557;SDS011;3820;51.098;13.716;2022-08-19T15:05:46;8.63;;;4.15;;
7557;SDS011;3820;51.098;13.716;2022-08-19T15:08:13;10.93;;;5.65;;
7557;SDS011;3820;51.098;13.716;2022-08-19T15:10:39;8.15;;;4.80;;
7557;SDS011;3820;51.098;13.716;2022-08-19T15:13:06;7.65;;;5.22;;
7557;SDS011;3820;51.098;13.716;2022-08-19T15:15:33;7.60;;;4.97;;
7557;SDS011;3820;51.098;13.716;2022-08-19T15:18:01;7.70;;;5.22;;
7557;SDS011;3820;51.098;13.716;2022-08-19T15:20:28;8.75;;;5.95;;
7557;SDS011;3820;51.098;13.716;2022-08-19T15:22:55;8.48;;;5.20;;
7557;SDS011;3820;51.098;13.716;2022-08-19T15:25:22;8.02;;;4.40;;